sensor_id;sensor_type;location;lat;lon;timestamp;P1;durP1;ratioP1;P2;durP2;ratioP2
27728;SDS011;15126;42.186;24.340;2022-11-20T00:01:25;36.27;;;32.27;;
27728;SDS011;15126;42.186;24.340;2022-11-20T00:03:54;39.27;;;31.97;;
27728;SDS011;15126;42.186;24.340;2022-11-20T00:06:22;36.43;;;32.70;;
27728;SDS011;15126;42.186;24.340;2022-11-20T00:08:50;35.87;;;32.03;;
27728;SDS011;15126;42.186;24.340;2022-11-20T00:11:18;34.67;;;31.10;;
27728;SDS011;15126;42.186;24.340;2022-11-20T00:13:47;36.73;;;32.83;;
27728;SDS011;15126;42.186;24.340;2022-11-20T00:16:17;34.47;;;31.10;;
27728;SDS011;15126;42.186;24.340;2022-11-20T00:18:45;37.53;;;32.93;;
27728;SDS011;15126;42.186;24.340;2022-11-20T00:21:13;34.07;;;28.80;;
27728;SDS011;15126;42.186;24.340;2022-11-20T00:23:42;33.70;;;30.20;;
27728;SDS011;15126;42.186;24.340;2022-11-20T00:26:09;34.43;;;30.87;;
27728;SDS011;15126;42.186;24.340;2022-11-20T00:28:37;38.60;;;33.27;;
27728;SDS011;15126;42.186;24.340;2022-11-20T00:31:05;36.83;;;31.63;;
27728;SDS011;15126;42.186;24.340;2022-11-20T00:33:34;37.03;;;33.07;;
27728;SDS011;15126;42.186;24.340;2022-11-20T00:36:01;35.33;;;31.57;;
27728;SDS011;15126;42.186;24.340;2022-11-20T00:38:30;34.13;;;30.43;;
27728;SDS011;15126;42.186;24.340;2022-11-20T00:40:57;34.77;;;31.17;;
27728;SDS011;15126;42.186;24.340;2022-11-20T00:43:24;34.43;;;30.83;;
27728;SDS011;15126;42.186;24.340;2022-11-20T00:45:55;40.17;;;34.33;;
27728;SDS011;15126;42.186;24.340;2022-11-20T00:48:23;40.30;;;33.50;;
27728;SDS011;15126;42.186;24.340;2022-11-20T00:50:51;36.80;;;32.90;;
27728;SDS011;15126;42.186;24.340;2022-11-20T00:53:19;35.13;;;31.63;;
27728;SDS011;15126;42.186;24.340;2022-11-20T00:55:52;34.60;;;31.13;;
27728;SDS011;15126;42.186;24.340;2022-11-20T00:58:20;35.33;;;31.50;;
27728;SDS011;15126;42.186;24.340;2022-11-20T01:00:47;33.13;;;29.73;;
27728;SDS011;15126;42.186;24.340;2022-11-20T01:03:15;37.23;;;33.23;;
27728;SDS011;15126;42.186;24.340;2022-11-20T01:05:42;38.13;;;33.23;;
27728;SDS011;15126;42.186;24.340;2022-11-20T01:08:10;34.20;;;29.10;;
27728;SDS011;15126;42.186;24.340;2022-11-20T01:10:37;37.90;;;33.60;;
27728;SDS011;15126;42.186;24.340;2022-11-20T01:13:04;36.53;;;32.47;;
27728;SDS011;15126;42.186;24.340;2022-11-20T01:15:51;34.17;;;30.03;;
27728;SDS011;15126;42.186;24.340;2022-11-20T01:18:17;37.33;;;33.23;;
27728;SDS011;15126;42.186;24.340;2022-11-20T01:20:44;37.83;;;33.47;;
27728;SDS011;15126;42.186;24.340;2022-11-20T01:23:12;34.80;;;31.23;;
27728;SDS011;15126;42.186;24.340;2022-11-20T01:25:39;38.50;;;34.33;;
27728;SDS011;15126;42.186;24.340;2022-11-20T01:28:06;38.10;;;34.27;;
27728;SDS011;15126;42.186;24.340;2022-11-20T01:30:33;35.90;;;31.33;;
27728;SDS011;15126;42.186;24.340;2022-11-20T01:33:00;35.57;;;31.53;;
27728;SDS011;15126;42.186;24.340;2022-11-20T01:35:26;36.77;;;32.53;;
27728;SDS011;15126;42.186;24.340;2022-11-20T01:37:53;40.03;;;32.40;;
27728;SDS011;15126;42.186;24.340;2022-11-20T01:40:21;35.87;;;31.73;;
27728;SDS011;15126;42.186;24.340;2022-11-20T01:42:51;38.30;;;30.73;;
27728;SDS011;15126;42.186;24.340;2022-11-20T01:46:12;38.37;;;33.40;;
27728;SDS011;15126;42.186;24.340;2022-11-20T01:48:46;37.50;;;30.17;;
27728;SDS011;15126;42.186;24.340;2022-11-20T01:51:20;33.23;;;29.57;;
27728;SDS011;15126;42.186;24.340;2022-11-20T01:53:51;35.93;;;30.47;;
27728;SDS011;15126;42.186;24.340;2022-11-20T01:56:21;34.80;;;31.20;;
27728;SDS011;15126;42.186;24.340;2022-11-20T01:58:50;34.00;;;30.50;;
27728;SDS011;15126;42.186;24.340;2022-11-20T02:01:20;33.40;;;29.70;;
27728;SDS011;15126;42.186;24.340;2022-11-20T02:03:47;35.17;;;31.50;;
27728;SDS011;15126;42.186;24.340;2022-11-20T02:06:17;35.70;;;29.97;;
27728;SDS011;15126;42.186;24.340;2022-11-20T02:08:49;33.27;;;29.67;;
27728;SDS011;15126;42.186;24.340;2022-11-20T02:11:17;35.10;;;30.87;;
27728;SDS011;15126;42.186;24.340;2022-11-20T02:13:46;33.30;;;29.80;;
27728;SDS011;15126;42.186;24.340;2022-11-20T02:16:14;38.90;;;32.73;;
27728;SDS011;15126;42.186;24.340;2022-11-20T02:18:44;36.47;;;32.40;;
27728;SDS011;15126;42.186;24.340;2022-11-20T02:21:14;43.47;;;35.70;;
27728;SDS011;15126;42.186;24.340;2022-11-20T02:24:02;38.47;;;34.33;;
27728;SDS011;15126;42.186;24.340;2022-11-20T02:26:31;39.03;;;34.20;;
27728;SDS011;15126;42.186;24.340;2022-11-20T02:29:01;37.53;;;33.57;;
27728;SDS011;15126;42.186;24.340;2022-11-20T02:31:33;39.73;;;35.67;;
27728;SDS011;15126;42.186;24.340;2022-11-20T02:34:04;36.37;;;32.57;;
27728;SDS011;15126;42.186;24.340;2022-11-20T02:36:31;38.43;;;34.00;;
27728;SDS011;15126;42.186;24.340;2022-11-20T02:39:03;34.77;;;31.20;;
27728;SDS011;15126;42.186;24.340;2022-11-20T02:41:31;37.30;;;33.43;;
27728;SDS011;15126;42.186;24.340;2022-11-20T02:43:59;38.37;;;33.77;;
27728;SDS011;15126;42.186;24.340;2022-11-20T02:46:26;35.63;;;32.00;;
27728;SDS011;15126;42.186;24.340;2022-11-20T02:48:53;35.97;;;31.27;;
27728;SDS011;15126;42.186;24.340;2022-11-20T02:51:20;38.70;;;32.67;;
27728;SDS011;15126;42.186;24.340;2022-11-20T02:53:46;39.77;;;33.43;;
27728;SDS011;15126;42.186;24.340;2022-11-20T02:56:15;45.03;;;33.43;;
27728;SDS011;15126;42.186;24.340;2022-11-20T02:58:42;37.63;;;33.20;;
27728;SDS011;15126;42.186;24.340;2022-11-20T03:01:09;36.30;;;32.43;;
27728;SDS011;15126;42.186;24.340;2022-11-20T03:03:36;35.73;;;31.87;;
27728;SDS011;15126;42.186;24.340;2022-11-20T03:06:03;41.37;;;34.57;;
27728;SDS011;15126;42.186;24.340;2022-11-20T03:08:30;37.23;;;33.23;;
27728;SDS011;15126;42.186;24.340;2022-11-20T03:10:56;40.53;;;32.80;;
27728;SDS011;15126;42.186;24.340;2022-11-20T03:13:30;34.57;;;31.03;;
27728;SDS011;15126;42.186;24.340;2022-11-20T03:15:57;33.43;;;29.90;;
27728;SDS011;15126;42.186;24.340;2022-11-20T03:18:24;36.17;;;32.47;;
27728;SDS011;15126;42.186;24.340;2022-11-20T03:20:56;40.07;;;31.80;;
27728;SDS011;15126;42.186;24.340;2022-11-20T03:23:23;33.73;;;30.00;;
27728;SDS011;15126;42.186;24.340;2022-11-20T03:25:50;39.40;;;30.33;;
27728;SDS011;15126;42.186;24.340;2022-11-20T03:28:17;35.30;;;31.77;;
27728;SDS011;15126;42.186;24.340;2022-11-20T03:30:45;36.70;;;32.17;;
27728;SDS011;15126;42.186;24.340;2022-11-20T03:33:12;38.67;;;31.87;;
27728;SDS011;15126;42.186;24.340;2022-11-20T03:35:39;35.03;;;31.27;;
27728;SDS011;15126;42.186;24.340;2022-11-20T03:38:06;33.80;;;30.13;;
27728;SDS011;15126;42.186;24.340;2022-11-20T03:40:33;31.33;;;27.77;;
27728;SDS011;15126;42.186;24.340;2022-11-20T03:43:00;32.10;;;23.67;;
27728;SDS011;15126;42.186;24.340;2022-11-20T03:45:27;22.97;;;20.30;;
27728;SDS011;15126;42.186;24.340;2022-11-20T03:47:55;29.43;;;18.97;;
27728;SDS011;15126;42.186;24.340;2022-11-20T03:50:22;10.27;;;8.33;;
27728;SDS011;15126;42.186;24.340;2022-11-20T03:52:49;25.57;;;23.03;;
27728;SDS011;15126;42.186;24.340;2022-11-20T03:55:16;28.47;;;25.47;;
27728;SDS011;15126;42.186;24.340;2022-11-20T03:57:43;33.17;;;26.07;;
27728;SDS011;15126;42.186;24.340;2022-11-20T04:00:10;28.87;;;22.57;;
27728;SDS011;15126;42.186;24.340;2022-11-20T04:02:38;24.20;;;21.90;;
27728;SDS011;15126;42.186;24.340;2022-11-20T04:05:07;25.17;;;21.90;;
27728;SDS011;15126;42.186;24.340;2022-11-20T04:07:34;28.00;;;21.53;;
27728;SDS011;15126;42.186;24.340;2022-11-20T04:10:01;21.73;;;19.47;;
27728;SDS011;15126;42.186;24.340;2022-11-20T04:12:31;32.50;;;20.03;;
27728;SDS011;15126;42.186;24.340;2022-11-20T04:14:59;24.27;;;21.57;;
27728;SDS011;15126;42.186;24.340;2022-11-20T04:17:26;26.43;;;21.67;;
27728;SDS011;15126;42.186;24.340;2022-11-20T04:19:53;24.37;;;21.77;;
27728;SDS011;15126;42.186;24.340;2022-11-20T04:22:21;27.20;;;20.53;;
27728;SDS011;15126;42.186;24.340;2022-11-20T04:24:48;24.17;;;21.63;;
27728;SDS011;15126;42.186;24.340;2022-11-20T04:27:15;27.03;;;20.17;;
27728;SDS011;15126;42.186;24.340;2022-11-20T04:29:42;27.13;;;21.03;;
27728;SDS011;15126;42.186;24.340;2022-11-20T04:32:09;22.27;;;19.93;;
27728;SDS011;15126;42.186;24.340;2022-11-20T04:34:36;19.80;;;17.80;;
27728;SDS011;15126;42.186;24.340;2022-11-20T04:37:03;25.17;;;18.70;;
27728;SDS011;15126;42.186;24.340;2022-11-20T04:39:31;23.60;;;21.20;;
27728;SDS011;15126;42.186;24.340;2022-11-20T04:41:58;22.37;;;20.07;;
27728;SDS011;15126;42.186;24.340;2022-11-20T04:44:39;21.90;;;19.57;;
27728;SDS011;15126;42.186;24.340;2022-11-20T04:47:06;24.80;;;20.63;;
27728;SDS011;15126;42.186;24.340;2022-11-20T04:49:33;26.47;;;19.50;;
27728;SDS011;15126;42.186;24.340;2022-11-20T04:52:00;22.13;;;19.87;;
27728;SDS011;15126;42.186;24.340;2022-11-20T04:54:26;27.80;;;22.03;;
27728;SDS011;15126;42.186;24.340;2022-11-20T04:56:55;25.63;;;22.07;;
27728;SDS011;15126;42.186;24.340;2022-11-20T04:59:21;23.27;;;20.77;;
27728;SDS011;15126;42.186;24.340;2022-11-20T05:01:48;23.97;;;21.27;;
27728;SDS011;15126;42.186;24.340;2022-11-20T05:04:15;24.73;;;22.30;;
27728;SDS011;15126;42.186;24.340;2022-11-20T05:06:42;24.03;;;20.97;;
27728;SDS011;15126;42.186;24.340;2022-11-20T05:09:10;30.70;;;21.17;;
27728;SDS011;15126;42.186;24.340;2022-11-20T05:11:37;32.77;;;23.20;;
27728;SDS011;15126;42.186;24.340;2022-11-20T05:14:06;27.93;;;23.43;;
27728;SDS011;15126;42.186;24.340;2022-11-20T05:16:33;28.80;;;23.50;;
27728;SDS011;15126;42.186;24.340;2022-11-20T05:19:01;26.90;;;22.87;;
27728;SDS011;15126;42.186;24.340;2022-11-20T05:21:29;26.67;;;23.23;;
27728;SDS011;15126;42.186;24.340;2022-11-20T05:23:57;27.50;;;24.03;;
27728;SDS011;15126;42.186;24.340;2022-11-20T05:26:24;31.93;;;26.93;;
27728;SDS011;15126;42.186;24.340;2022-11-20T05:28:50;30.03;;;25.83;;
27728;SDS011;15126;42.186;24.340;2022-11-20T05:31:20;33.80;;;26.37;;
27728;SDS011;15126;42.186;24.340;2022-11-20T05:33:48;29.33;;;24.40;;
27728;SDS011;15126;42.186;24.340;2022-11-20T05:36:15;30.43;;;24.30;;
27728;SDS011;15126;42.186;24.340;2022-11-20T05:38:43;35.80;;;26.80;;
27728;SDS011;15126;42.186;24.340;2022-11-20T05:41:11;32.97;;;24.40;;
27728;SDS011;15126;42.186;24.340;2022-11-20T05:43:39;27.93;;;24.90;;
27728;SDS011;15126;42.186;24.340;2022-11-20T05:46:08;36.03;;;27.30;;
27728;SDS011;15126;42.186;24.340;2022-11-20T05:48:38;36.17;;;26.60;;
27728;SDS011;15126;42.186;24.340;2022-11-20T05:51:07;42.00;;;32.13;;
27728;SDS011;15126;42.186;24.340;2022-11-20T05:53:36;29.10;;;25.77;;
27728;SDS011;15126;42.186;24.340;2022-11-20T05:56:04;38.00;;;29.37;;
27728;SDS011;15126;42.186;24.340;2022-11-20T05:58:33;38.43;;;27.73;;
27728;SDS011;15126;42.186;24.340;2022-11-20T06:01:04;31.37;;;28.07;;
27728;SDS011;15126;42.186;24.340;2022-11-20T06:03:32;36.70;;;29.00;;
27728;SDS011;15126;42.186;24.340;2022-11-20T06:06:00;34.07;;;28.33;;
27728;SDS011;15126;42.186;24.340;2022-11-20T06:08:28;32.07;;;28.23;;
27728;SDS011;15126;42.186;24.340;2022-11-20T06:10:55;33.40;;;27.87;;
27728;SDS011;15126;42.186;24.340;2022-11-20T06:13:23;39.70;;;31.40;;
27728;SDS011;15126;42.186;24.340;2022-11-20T06:15:49;31.33;;;28.13;;
27728;SDS011;15126;42.186;24.340;2022-11-20T06:18:17;36.10;;;30.93;;
27728;SDS011;15126;42.186;24.340;2022-11-20T06:20:44;43.37;;;32.90;;
27728;SDS011;15126;42.186;24.340;2022-11-20T06:23:13;33.83;;;28.70;;
27728;SDS011;15126;42.186;24.340;2022-11-20T06:25:40;36.73;;;28.87;;
27728;SDS011;15126;42.186;24.340;2022-11-20T06:28:08;37.63;;;30.13;;
27728;SDS011;15126;42.186;24.340;2022-11-20T06:30:35;32.73;;;28.57;;
27728;SDS011;15126;42.186;24.340;2022-11-20T06:33:03;31.97;;;28.87;;
27728;SDS011;15126;42.186;24.340;2022-11-20T06:35:29;31.70;;;28.20;;
27728;SDS011;15126;42.186;24.340;2022-11-20T06:37:56;35.80;;;25.87;;
27728;SDS011;15126;42.186;24.340;2022-11-20T06:40:25;34.17;;;27.30;;
27728;SDS011;15126;42.186;24.340;2022-11-20T06:42:53;38.63;;;29.63;;
27728;SDS011;15126;42.186;24.340;2022-11-20T06:45:20;38.07;;;28.50;;
27728;SDS011;15126;42.186;24.340;2022-11-20T06:47:47;25.80;;;22.60;;
27728;SDS011;15126;42.186;24.340;2022-11-20T06:50:14;25.70;;;21.07;;
27728;SDS011;15126;42.186;24.340;2022-11-20T06:52:41;28.27;;;21.30;;
27728;SDS011;15126;42.186;24.340;2022-11-20T06:55:08;25.50;;;20.90;;
27728;SDS011;15126;42.186;24.340;2022-11-20T06:57:36;30.63;;;23.47;;
27728;SDS011;15126;42.186;24.340;2022-11-20T07:00:03;30.30;;;24.87;;
27728;SDS011;15126;42.186;24.340;2022-11-20T07:02:31;34.63;;;24.87;;
27728;SDS011;15126;42.186;24.340;2022-11-20T07:04:58;25.90;;;19.33;;
27728;SDS011;15126;42.186;24.340;2022-11-20T07:07:24;28.00;;;19.33;;
27728;SDS011;15126;42.186;24.340;2022-11-20T07:09:51;20.30;;;17.87;;
27728;SDS011;15126;42.186;24.340;2022-11-20T07:12:18;31.47;;;20.47;;
27728;SDS011;15126;42.186;24.340;2022-11-20T07:14:46;32.53;;;21.97;;
27728;SDS011;15126;42.186;24.340;2022-11-20T07:17:13;30.30;;;19.23;;
27728;SDS011;15126;42.186;24.340;2022-11-20T07:19:40;28.77;;;20.57;;
27728;SDS011;15126;42.186;24.340;2022-11-20T07:22:08;26.47;;;16.00;;
27728;SDS011;15126;42.186;24.340;2022-11-20T07:24:34;22.10;;;14.10;;
27728;SDS011;15126;42.186;24.340;2022-11-20T07:27:04;22.47;;;16.20;;
27728;SDS011;15126;42.186;24.340;2022-11-20T07:29:31;20.00;;;14.57;;
27728;SDS011;15126;42.186;24.340;2022-11-20T07:31:59;22.37;;;14.30;;
27728;SDS011;15126;42.186;24.340;2022-11-20T07:34:26;17.87;;;14.57;;
27728;SDS011;15126;42.186;24.340;2022-11-20T07:36:53;25.20;;;16.27;;
27728;SDS011;15126;42.186;24.340;2022-11-20T07:39:20;23.40;;;17.40;;
27728;SDS011;15126;42.186;24.340;2022-11-20T07:41:46;30.90;;;19.50;;
27728;SDS011;15126;42.186;24.340;2022-11-20T07:44:13;24.80;;;19.33;;
27728;SDS011;15126;42.186;24.340;2022-11-20T07:46:40;29.83;;;21.27;;
27728;SDS011;15126;42.186;24.340;2022-11-20T07:49:08;25.30;;;17.73;;
27728;SDS011;15126;42.186;24.340;2022-11-20T07:51:35;20.30;;;15.73;;
27728;SDS011;15126;42.186;24.340;2022-11-20T07:54:01;22.23;;;14.60;;
27728;SDS011;15126;42.186;24.340;2022-11-20T07:56:31;22.03;;;16.23;;
27728;SDS011;15126;42.186;24.340;2022-11-20T07:58:58;24.27;;;15.23;;
27728;SDS011;15126;42.186;24.340;2022-11-20T08:01:24;22.87;;;17.07;;
27728;SDS011;15126;42.186;24.340;2022-11-20T08:03:51;27.00;;;19.87;;
27728;SDS011;15126;42.186;24.340;2022-11-20T08:06:19;30.33;;;21.13;;
27728;SDS011;15126;42.186;24.340;2022-11-20T08:08:46;33.73;;;28.97;;
27728;SDS011;15126;42.186;24.340;2022-11-20T08:11:13;31.30;;;27.90;;
27728;SDS011;15126;42.186;24.340;2022-11-20T08:13:57;30.83;;;22.13;;
27728;SDS011;15126;42.186;24.340;2022-11-20T08:16:39;30.30;;;20.57;;
27728;SDS011;15126;42.186;24.340;2022-11-20T08:19:07;33.30;;;20.70;;
27728;SDS011;15126;42.186;24.340;2022-11-20T08:21:35;24.83;;;20.03;;
27728;SDS011;15126;42.186;24.340;2022-11-20T08:24:02;26.90;;;19.07;;
27728;SDS011;15126;42.186;24.340;2022-11-20T08:26:30;27.30;;;20.13;;
27728;SDS011;15126;42.186;24.340;2022-11-20T08:28:56;21.73;;;16.77;;
27728;SDS011;15126;42.186;24.340;2022-11-20T08:31:24;24.50;;;21.93;;
27728;SDS011;15126;42.186;24.340;2022-11-20T08:33:52;43.73;;;38.63;;
27728;SDS011;15126;42.186;24.340;2022-11-20T08:36:19;30.27;;;23.47;;
27728;SDS011;15126;42.186;24.340;2022-11-20T08:38:48;24.23;;;16.77;;
27728;SDS011;15126;42.186;24.340;2022-11-20T08:41:16;20.67;;;15.83;;
27728;SDS011;15126;42.186;24.340;2022-11-20T08:43:54;25.80;;;14.60;;
27728;SDS011;15126;42.186;24.340;2022-11-20T08:46:22;20.60;;;13.77;;
27728;SDS011;15126;42.186;24.340;2022-11-20T08:48:50;19.83;;;15.77;;
27728;SDS011;15126;42.186;24.340;2022-11-20T08:51:18;22.87;;;15.60;;
27728;SDS011;15126;42.186;24.340;2022-11-20T08:53:45;17.10;;;12.87;;
27728;SDS011;15126;42.186;24.340;2022-11-20T08:56:15;17.37;;;13.20;;
27728;SDS011;15126;42.186;24.340;2022-11-20T08:58:42;16.90;;;10.80;;
27728;SDS011;15126;42.186;24.340;2022-11-20T09:01:10;16.90;;;11.30;;
27728;SDS011;15126;42.186;24.340;2022-11-20T09:03:37;13.77;;;9.73;;
27728;SDS011;15126;42.186;24.340;2022-11-20T09:06:04;14.40;;;9.10;;
27728;SDS011;15126;42.186;24.340;2022-11-20T09:08:32;17.80;;;9.83;;
27728;SDS011;15126;42.186;24.340;2022-11-20T09:11:01;11.77;;;8.13;;
27728;SDS011;15126;42.186;24.340;2022-11-20T09:13:29;13.20;;;7.50;;
27728;SDS011;15126;42.186;24.340;2022-11-20T09:15:56;11.93;;;7.33;;
27728;SDS011;15126;42.186;24.340;2022-11-20T09:18:24;14.07;;;7.30;;
27728;SDS011;15126;42.186;24.340;2022-11-20T09:20:51;9.93;;;6.30;;
27728;SDS011;15126;42.186;24.340;2022-11-20T09:23:22;15.40;;;6.50;;
27728;SDS011;15126;42.186;24.340;2022-11-20T09:25:49;15.63;;;6.03;;
27728;SDS011;15126;42.186;24.340;2022-11-20T09:28:16;18.40;;;6.53;;
27728;SDS011;15126;42.186;24.340;2022-11-20T09:30:44;10.20;;;7.10;;
27728;SDS011;15126;42.186;24.340;2022-11-20T09:33:11;7.87;;;5.37;;
27728;SDS011;15126;42.186;24.340;2022-11-20T09:35:38;9.40;;;6.03;;
27728;SDS011;15126;42.186;24.340;2022-11-20T09:38:05;48.07;;;41.77;;
27728;SDS011;15126;42.186;24.340;2022-11-20T09:40:32;26.93;;;14.70;;
27728;SDS011;15126;42.186;24.340;2022-11-20T09:43:02;28.40;;;13.97;;
27728;SDS011;15126;42.186;24.340;2022-11-20T09:45:47;11.73;;;6.60;;
27728;SDS011;15126;42.186;24.340;2022-11-20T09:48:26;11.53;;;5.90;;
27728;SDS011;15126;42.186;24.340;2022-11-20T09:51:02;13.23;;;6.07;;
27728;SDS011;15126;42.186;24.340;2022-11-20T09:53:33;10.60;;;5.73;;
27728;SDS011;15126;42.186;24.340;2022-11-20T09:56:12;13.00;;;7.13;;
27728;SDS011;15126;42.186;24.340;2022-11-20T09:58:41;20.40;;;11.37;;
27728;SDS011;15126;42.186;24.340;2022-11-20T10:01:12;30.40;;;17.27;;
27728;SDS011;15126;42.186;24.340;2022-11-20T10:03:45;59.97;;;41.63;;
27728;SDS011;15126;42.186;24.340;2022-11-20T10:06:20;22.97;;;12.60;;
27728;SDS011;15126;42.186;24.340;2022-11-20T10:08:51;30.67;;;25.07;;
27728;SDS011;15126;42.186;24.340;2022-11-20T10:11:27;36.67;;;28.30;;
27728;SDS011;15126;42.186;24.340;2022-11-20T10:14:03;15.87;;;5.73;;
27728;SDS011;15126;42.186;24.340;2022-11-20T10:16:43;14.27;;;8.23;;
27728;SDS011;15126;42.186;24.340;2022-11-20T10:19:23;13.00;;;7.13;;
27728;SDS011;15126;42.186;24.340;2022-11-20T10:22:01;27.93;;;8.77;;
27728;SDS011;15126;42.186;24.340;2022-11-20T10:24:40;23.93;;;10.10;;
27728;SDS011;15126;42.186;24.340;2022-11-20T10:27:20;38.43;;;19.10;;
27728;SDS011;15126;42.186;24.340;2022-11-20T10:30:07;27.73;;;19.37;;
27728;SDS011;15126;42.186;24.340;2022-11-20T10:32:38;32.60;;;22.13;;
27728;SDS011;15126;42.186;24.340;2022-11-20T10:35:09;29.00;;;15.53;;
27728;SDS011;15126;42.186;24.340;2022-11-20T10:37:49;21.50;;;13.40;;
27728;SDS011;15126;42.186;24.340;2022-11-20T10:40:23;21.97;;;10.13;;
27728;SDS011;15126;42.186;24.340;2022-11-20T10:42:58;17.40;;;10.70;;
27728;SDS011;15126;42.186;24.340;2022-11-20T10:45:33;18.47;;;12.23;;
27728;SDS011;15126;42.186;24.340;2022-11-20T10:48:15;24.40;;;11.17;;
27728;SDS011;15126;42.186;24.340;2022-11-20T10:50:57;22.93;;;12.87;;
27728;SDS011;15126;42.186;24.340;2022-11-20T10:53:47;20.97;;;10.77;;
27728;SDS011;15126;42.186;24.340;2022-11-20T10:56:24;19.87;;;10.60;;
27728;SDS011;15126;42.186;24.340;2022-11-20T11:02:12;18.43;;;9.50;;
27728;SDS011;15126;42.186;24.340;2022-11-20T11:04:43;14.23;;;6.87;;
27728;SDS011;15126;42.186;24.340;2022-11-20T11:07:12;20.43;;;7.87;;
27728;SDS011;15126;42.186;24.340;2022-11-20T11:09:43;15.83;;;7.13;;
27728;SDS011;15126;42.186;24.340;2022-11-20T11:12:13;22.67;;;14.70;;
27728;SDS011;15126;42.186;24.340;2022-11-20T11:14:47;21.20;;;8.27;;
27728;SDS011;15126;42.186;24.340;2022-11-20T11:17:19;11.43;;;6.40;;
27728;SDS011;15126;42.186;24.340;2022-11-20T11:19:58;22.30;;;11.23;;
27728;SDS011;15126;42.186;24.340;2022-11-20T11:22:44;16.90;;;5.77;;
27728;SDS011;15126;42.186;24.340;2022-11-20T11:25:23;18.40;;;5.67;;
27728;SDS011;15126;42.186;24.340;2022-11-20T11:27:56;17.83;;;4.30;;
27728;SDS011;15126;42.186;24.340;2022-11-20T11:30:24;18.40;;;6.33;;
27728;SDS011;15126;42.186;24.340;2022-11-20T11:33:04;11.80;;;4.33;;
27728;SDS011;15126;42.186;24.340;2022-11-20T11:35:38;17.93;;;5.97;;
27728;SDS011;15126;42.186;24.340;2022-11-20T11:38:12;21.87;;;4.80;;
27728;SDS011;15126;42.186;24.340;2022-11-20T11:40:42;20.90;;;6.50;;
27728;SDS011;15126;42.186;24.340;2022-11-20T11:43:17;16.80;;;4.63;;
27728;SDS011;15126;42.186;24.340;2022-11-20T11:46:04;19.00;;;4.50;;
27728;SDS011;15126;42.186;24.340;2022-11-20T11:48:54;11.27;;;3.63;;
27728;SDS011;15126;42.186;24.340;2022-11-20T11:51:23;23.23;;;5.37;;
27728;SDS011;15126;42.186;24.340;2022-11-20T11:53:54;14.73;;;5.57;;
27728;SDS011;15126;42.186;24.340;2022-11-20T11:56:24;22.20;;;8.03;;
27728;SDS011;15126;42.186;24.340;2022-11-20T11:58:53;21.30;;;6.60;;
27728;SDS011;15126;42.186;24.340;2022-11-20T12:01:27;18.40;;;4.57;;
27728;SDS011;15126;42.186;24.340;2022-11-20T12:04:00;18.27;;;4.20;;
27728;SDS011;15126;42.186;24.340;2022-11-20T12:06:31;12.40;;;3.33;;
27728;SDS011;15126;42.186;24.340;2022-11-20T12:09:02;46.20;;;8.87;;
27728;SDS011;15126;42.186;24.340;2022-11-20T12:11:32;18.67;;;4.73;;
27728;SDS011;15126;42.186;24.340;2022-11-20T12:14:07;21.27;;;4.47;;
27728;SDS011;15126;42.186;24.340;2022-11-20T12:16:40;28.80;;;5.33;;
27728;SDS011;15126;42.186;24.340;2022-11-20T12:19:08;54.80;;;9.90;;
27728;SDS011;15126;42.186;24.340;2022-11-20T12:21:41;15.13;;;4.07;;
27728;SDS011;15126;42.186;24.340;2022-11-20T12:24:29;17.33;;;5.00;;
27728;SDS011;15126;42.186;24.340;2022-11-20T12:27:09;16.33;;;4.40;;
27728;SDS011;15126;42.186;24.340;2022-11-20T12:30:03;18.43;;;3.93;;
27728;SDS011;15126;42.186;24.340;2022-11-20T12:32:50;22.43;;;5.47;;
27728;SDS011;15126;42.186;24.340;2022-11-20T12:35:47;65.63;;;11.40;;
27728;SDS011;15126;42.186;24.340;2022-11-20T12:41:17;13.60;;;3.90;;
27728;SDS011;15126;42.186;24.340;2022-11-20T12:44:16;11.23;;;3.33;;
27728;SDS011;15126;42.186;24.340;2022-11-20T12:47:18;15.57;;;4.43;;
27728;SDS011;15126;42.186;24.340;2022-11-20T12:49:56;21.50;;;4.77;;
27728;SDS011;15126;42.186;24.340;2022-11-20T12:52:37;12.80;;;4.53;;
27728;SDS011;15126;42.186;24.340;2022-11-20T12:55:14;14.03;;;4.00;;
27728;SDS011;15126;42.186;24.340;2022-11-20T12:57:49;13.53;;;3.53;;
27728;SDS011;15126;42.186;24.340;2022-11-20T13:00:20;15.57;;;5.60;;
27728;SDS011;15126;42.186;24.340;2022-11-20T13:03:17;19.23;;;7.40;;
27728;SDS011;15126;42.186;24.340;2022-11-20T13:06:02;11.27;;;3.93;;
27728;SDS011;15126;42.186;24.340;2022-11-20T13:08:38;8.93;;;4.50;;
27728;SDS011;15126;42.186;24.340;2022-11-20T13:11:09;7.77;;;2.40;;
27728;SDS011;15126;42.186;24.340;2022-11-20T13:13:47;15.87;;;4.60;;
27728;SDS011;15126;42.186;24.340;2022-11-20T13:16:30;9.00;;;3.40;;
27728;SDS011;15126;42.186;24.340;2022-11-20T13:19:03;13.47;;;6.00;;
27728;SDS011;15126;42.186;24.340;2022-11-20T13:21:37;11.70;;;4.50;;
27728;SDS011;15126;42.186;24.340;2022-11-20T13:24:05;10.30;;;4.77;;
27728;SDS011;15126;42.186;24.340;2022-11-20T13:26:34;16.53;;;4.83;;
27728;SDS011;15126;42.186;24.340;2022-11-20T13:29:03;18.63;;;3.27;;
27728;SDS011;15126;42.186;24.340;2022-11-20T13:31:36;13.53;;;3.73;;
27728;SDS011;15126;42.186;24.340;2022-11-20T13:34:10;10.87;;;3.30;;
27728;SDS011;15126;42.186;24.340;2022-11-20T13:36:48;5.83;;;2.40;;
27728;SDS011;15126;42.186;24.340;2022-11-20T13:39:23;8.73;;;2.77;;
27728;SDS011;15126;42.186;24.340;2022-11-20T13:41:55;11.07;;;2.10;;
27728;SDS011;15126;42.186;24.340;2022-11-20T13:44:24;4.13;;;2.13;;
27728;SDS011;15126;42.186;24.340;2022-11-20T13:46:53;5.13;;;1.43;;
27728;SDS011;15126;42.186;24.340;2022-11-20T13:49:22;4.90;;;2.20;;
27728;SDS011;15126;42.186;24.340;2022-11-20T13:51:54;3.37;;;1.83;;
27728;SDS011;15126;42.186;24.340;2022-11-20T13:54:42;8.93;;;1.93;;
27728;SDS011;15126;42.186;24.340;2022-11-20T13:57:26;4.27;;;2.57;;
27728;SDS011;15126;42.186;24.340;2022-11-20T14:00:09;7.90;;;3.37;;
27728;SDS011;15126;42.186;24.340;2022-11-20T14:02:38;5.80;;;2.30;;
27728;SDS011;15126;42.186;24.340;2022-11-20T14:05:05;5.33;;;2.43;;
27728;SDS011;15126;42.186;24.340;2022-11-20T14:07:41;5.00;;;2.67;;
27728;SDS011;15126;42.186;24.340;2022-11-20T14:10:18;12.57;;;11.13;;
27728;SDS011;15126;42.186;24.340;2022-11-20T14:12:47;10.63;;;7.87;;
27728;SDS011;15126;42.186;24.340;2022-11-20T14:15:24;3.87;;;1.97;;
27728;SDS011;15126;42.186;24.340;2022-11-20T14:17:52;3.57;;;1.77;;
27728;SDS011;15126;42.186;24.340;2022-11-20T14:20:19;2.97;;;2.03;;
27728;SDS011;15126;42.186;24.340;2022-11-20T14:22:50;2.67;;;1.50;;
27728;SDS011;15126;42.186;24.340;2022-11-20T14:25:19;4.93;;;3.00;;
27728;SDS011;15126;42.186;24.340;2022-11-20T14:27:52;9.33;;;5.13;;
27728;SDS011;15126;42.186;24.340;2022-11-20T14:30:20;16.10;;;11.27;;
27728;SDS011;15126;42.186;24.340;2022-11-20T14:32:49;10.63;;;8.07;;
27728;SDS011;15126;42.186;24.340;2022-11-20T14:35:18;26.17;;;21.03;;
27728;SDS011;15126;42.186;24.340;2022-11-20T14:37:47;19.50;;;13.17;;
27728;SDS011;15126;42.186;24.340;2022-11-20T14:40:25;24.30;;;12.80;;